createdAt,value
2022-08-22T00:01:10.858Z,100686.09
2022-08-22T00:03:04.652Z,100620.59
2022-08-22T00:03:10.647Z,100592.81
2022-08-22T00:03:11.356Z,100678.66
2022-08-22T00:03:50.477Z,100693.97
2022-08-22T00:06:35.710Z,100703.28
2022-08-22T00:09:24.806Z,100693.09
2022-08-22T00:12:01.712Z,100702.00
2022-08-22T00:14:39.854Z,100707.59
2022-08-22T00:17:27.757Z,100712.13
2022-08-22T00:20:06.312Z,100709.63
2022-08-22T00:22:44.774Z,100711.69
2022-08-22T00:25:35.256Z,100720.00
2022-08-22T00:28:22.630Z,100723.09
2022-08-22T00:31:09.493Z,100722.63
2022-08-22T00:33:45.561Z,100719.44
2022-08-22T00:36:17.984Z,100732.72
2022-08-22T00:38:55.857Z,100732.66
2022-08-22T00:41:31.179Z,100738.03
2022-08-22T00:44:21.602Z,100747.75
2022-08-22T00:46:54.462Z,100747.97
2022-08-22T00:49:41.263Z,100759.19
2022-08-22T00:52:16.278Z,100772.88
2022-08-22T00:55:17.920Z,100769.50
2022-08-22T00:57:50.260Z,100784.03
2022-08-22T01:00:26.642Z,100781.97
2022-08-22T01:02:58.427Z,100788.56
2022-08-22T01:05:30.280Z,100792.50
2022-08-22T01:08:19.458Z,100799.38
2022-08-22T01:11:14.548Z,100798.09
2022-08-22T01:13:52.544Z,100797.41
2022-08-22T01:16:33.002Z,100797.22
2022-08-22T01:19:23.044Z,100802.19
2022-08-22T01:21:54.776Z,100804.44
2022-08-22T01:25:07.825Z,100810.47
2022-08-22T01:27:40.568Z,100808.97
2022-08-22T01:30:20.020Z,100809.63
2022-08-22T01:33:01.126Z,100800.22
2022-08-22T01:35:51.676Z,100806.25
2022-08-22T01:38:37.487Z,100800.94
2022-08-22T01:41:18.119Z,100809.34
2022-08-22T01:44:01.301Z,100798.81
2022-08-22T01:46:40.546Z,100799.22
2022-08-22T01:49:17.804Z,100798.19
2022-08-22T01:51:58.343Z,100795.81
2022-08-22T01:54:53.439Z,100798.84
2022-08-22T01:57:26.090Z,100796.69
2022-08-22T02:00:00.808Z,100802.69
2022-08-22T02:02:44.091Z,100803.47
2022-08-22T02:05:19.978Z,100805.28
2022-08-22T02:07:59.491Z,100789.19
2022-08-22T02:10:46.940Z,100789.38
2022-08-22T02:13:21.894Z,100784.09
2022-08-22T02:16:16.657Z,100779.66
2022-08-22T02:18:48.492Z,100786.06
2022-08-22T02:21:31.903Z,100784.56
2022-08-22T02:24:09.731Z,100775.97
2022-08-22T02:27:05.728Z,100772.81
2022-08-22T02:29:44.917Z,100774.25
2022-08-22T02:32:22.942Z,100771.72
2022-08-22T02:35:01.747Z,100761.22
2022-08-22T02:37:36.953Z,100760.81
2022-08-22T02:40:14.868Z,100768.47
2022-08-22T02:42:54.055Z,100768.84
2022-08-22T02:45:31.607Z,100772.97
2022-08-22T02:48:03.484Z,100768.16
2022-08-22T02:50:47.500Z,100765.00
2022-08-22T02:53:22.599Z,100766.44
2022-08-22T02:56:10.749Z,100767.81
2022-08-22T02:59:05.144Z,100770.31
2022-08-22T03:01:42.517Z,100757.13
2022-08-22T03:04:29.607Z,100753.94
2022-08-22T03:07:13.654Z,100755.63
2022-08-22T03:09:45.732Z,100749.75
2022-08-22T03:12:22.520Z,100753.06
2022-08-22T03:15:24.008Z,100741.75
2022-08-22T03:18:08.155Z,100733.34
2022-08-22T03:20:39.944Z,100736.69
2022-08-22T03:23:17.825Z,100732.06
2022-08-22T03:25:54.193Z,100730.81
2022-08-22T03:28:30.501Z,100726.22
2022-08-22T03:31:10.194Z,100724.94
2022-08-22T03:33:43.878Z,100722.81
2022-08-22T03:36:19.090Z,100723.63
2022-08-22T03:38:56.153Z,100714.47
2022-08-22T03:41:51.497Z,100713.41
2022-08-22T03:44:40.055Z,100707.72
2022-08-22T03:47:17.707Z,100714.00
2022-08-22T03:50:07.660Z,100719.19
2022-08-22T03:53:05.531Z,100711.84
2022-08-22T03:55:55.380Z,100710.00
2022-08-22T03:58:27.886Z,100699.97
2022-08-22T04:01:13.314Z,100690.75
2022-08-22T04:03:45.153Z,100689.69
2022-08-22T04:06:36.746Z,100683.22
2022-08-22T04:09:29.108Z,100679.44
2022-08-22T04:12:06.942Z,100672.97
2022-08-22T04:14:39.194Z,100664.81
2022-08-22T04:17:29.265Z,100651.81
2022-08-22T04:20:04.235Z,100650.78
2022-08-22T04:23:05.462Z,100649.50
2022-08-22T04:25:45.167Z,100639.47
2022-08-22T04:28:23.416Z,100631.06
2022-08-22T04:31:04.431Z,100636.88
2022-08-22T04:33:52.941Z,100626.59
2022-08-22T04:36:27.921Z,100615.50
2022-08-22T04:39:31.891Z,100617.97
2022-08-22T04:42:32.208Z,100611.50
2022-08-22T04:45:11.836Z,100611.03
2022-08-22T04:47:47.241Z,100607.00
2022-08-22T04:50:56.129Z,100595.66
2022-08-22T04:53:28.780Z,100601.91
2022-08-22T04:56:07.345Z,100596.84
2022-08-22T04:58:48.569Z,100601.78
2022-08-22T05:01:28.172Z,100607.00
2022-08-22T05:04:01.855Z,100596.94
2022-08-22T05:06:36.027Z,100597.78
2022-08-22T05:09:16.186Z,100591.34
2022-08-22T05:11:50.934Z,100574.56
2022-08-22T05:14:27.626Z,100568.88
2022-08-22T05:16:59.778Z,100567.56
2022-08-22T05:19:36.254Z,100569.00
2022-08-22T05:22:16.183Z,100564.97
2022-08-22T05:24:50.055Z,100561.78
2022-08-22T05:27:27.598Z,100559.66
2022-08-22T05:30:03.871Z,100545.00
2022-08-22T05:32:42.524Z,100546.41
2022-08-22T05:35:17.557Z,100532.81
2022-08-22T05:37:53.468Z,100517.34
2022-08-22T05:40:27.826Z,100516.91
2022-08-22T05:43:00.264Z,100518.06
2022-08-22T05:45:33.874Z,100513.44
2022-08-22T05:48:17.424Z,100506.69
2022-08-22T05:51:10.598Z,100517.06
2022-08-22T05:53:45.870Z,100514.94
2022-08-22T05:56:36.996Z,100511.16
2022-08-22T05:59:34.759Z,100509.84
2022-08-22T06:02:21.932Z,100497.66
2022-08-22T06:05:02.315Z,100483.88
2022-08-22T06:07:48.933Z,100488.81
2022-08-22T06:10:27.299Z,100471.19
2022-08-22T06:13:03.734Z,100470.72
2022-08-22T06:15:54.411Z,100465.63
2022-08-22T06:18:27.879Z,100456.97
2022-08-22T06:21:04.844Z,100455.44
2022-08-22T06:23:43.891Z,100459.56
2022-08-22T06:26:20.878Z,100462.34
2022-08-22T06:28:55.823Z,100460.78
2022-08-22T06:31:33.277Z,100454.84
2022-08-22T06:34:05.345Z,100439.94
2022-08-22T06:36:39.697Z,100437.00
2022-08-22T06:39:21.786Z,100428.34
2022-08-22T06:41:59.682Z,100425.69
2022-08-22T06:44:37.191Z,100423.31
2022-08-22T06:47:12.059Z,100417.09
2022-08-22T06:49:47.242Z,100421.22
2022-08-22T06:52:27.242Z,100417.19
2022-08-22T06:55:02.011Z,100412.94
2022-08-22T06:57:34.136Z,100403.69
2022-08-22T07:00:12.432Z,100401.56
2022-08-22T07:03:07.672Z,100404.88
2022-08-22T07:05:42.039Z,100395.34
2022-08-22T07:08:16.465Z,100389.69
2022-08-22T07:10:58.476Z,100385.38
2022-08-22T07:13:30.641Z,100392.47
2022-08-22T07:16:07.033Z,100394.69
2022-08-22T07:18:48.893Z,100399.63
2022-08-22T07:21:29.490Z,100389.03
2022-08-22T07:24:03.052Z,100392.09
2022-08-22T07:26:35.494Z,100379.06
2022-08-22T07:29:12.016Z,100386.47
2022-08-22T07:32:07.274Z,100393.88
2022-08-22T07:34:42.558Z,100389.84
2022-08-22T07:37:34.232Z,100382.81
2022-08-22T07:40:09.350Z,100378.53
2022-08-22T07:43:00.015Z,100374.22
2022-08-22T07:45:39.430Z,100368.03
2022-08-22T07:48:26.239Z,100371.06
2022-08-22T07:51:04.977Z,100365.91
2022-08-22T07:54:00.633Z,100375.22
2022-08-22T07:56:37.709Z,100376.34
2022-08-22T07:59:16.340Z,100366.84
2022-08-22T08:01:55.079Z,100364.41
2022-08-22T08:04:30.751Z,100358.47
2022-08-22T08:07:04.158Z,100356.59
2022-08-22T08:09:39.465Z,100359.84
2022-08-22T08:12:12.998Z,100349.81
2022-08-22T08:14:46.813Z,100350.34
2022-08-22T08:17:31.382Z,100340.03
2022-08-22T08:20:09.341Z,100348.78
2022-08-22T08:22:42.207Z,100335.97
2022-08-22T08:25:19.488Z,100342.81
2022-08-22T08:28:10.316Z,100344.44
2022-08-22T08:30:45.875Z,100343.91
2022-08-22T08:33:25.285Z,100342.84
2022-08-22T08:36:04.995Z,100337.97
2022-08-22T08:38:45.557Z,100345.91
2022-08-22T08:41:35.350Z,100324.94
2022-08-22T08:44:24.009Z,100321.97
2022-08-22T08:47:04.056Z,100342.94
2022-08-22T08:49:50.582Z,100346.72
2022-08-22T08:52:38.842Z,100352.19
2022-08-22T08:55:22.017Z,100354.31
2022-08-22T08:57:54.506Z,100351.03
2022-08-22T09:00:48.959Z,100347.72
2022-08-22T09:03:40.095Z,100344.44
2022-08-22T09:06:29.932Z,100355.84
2022-08-22T09:09:05.494Z,100369.47
2022-08-22T09:11:40.104Z,100399.94
2022-08-22T09:14:14.074Z,100413.56
2022-08-22T09:16:58.436Z,100395.00
2022-08-22T09:19:34.070Z,100380.81
2022-08-22T09:22:06.863Z,100379.19
2022-08-22T09:24:46.319Z,100393.84
2022-08-22T09:27:22.988Z,100403.69
2022-08-22T09:30:16.987Z,100405.84
2022-08-22T09:32:56.333Z,100406.94
2022-08-22T09:35:49.052Z,100423.25
2022-08-22T09:38:27.695Z,100409.06
2022-08-22T09:41:17.664Z,100410.41
2022-08-22T09:44:09.287Z,100410.41
2022-08-22T09:46:57.966Z,100407.09
2022-08-22T09:49:37.088Z,100407.09
2022-08-22T09:52:33.119Z,100397.03
2022-08-22T09:55:35.072Z,100382.88
2022-08-22T09:58:19.322Z,100408.44
2022-08-22T10:00:57.119Z,100417.69
2022-08-22T10:03:32.673Z,100417.13
2022-08-22T10:06:09.809Z,100423.66
2022-08-22T10:08:41.355Z,100422.03
2022-08-22T10:11:28.821Z,100432.69
2022-08-22T10:14:11.957Z,100439.59
2022-08-22T10:17:00.618Z,100473.81
2022-08-22T10:19:33.280Z,100498.63
2022-08-22T10:22:07.593Z,100504.47
2022-08-22T10:24:45.498Z,100504.38
2022-08-22T10:27:24.985Z,100520.31
2022-08-22T10:30:14.084Z,100530.38
2022-08-22T10:32:51.035Z,100529.31
2022-08-22T10:35:25.638Z,100536.63
2022-08-22T10:38:02.480Z,100552.63
2022-08-22T10:40:36.094Z,100571.06
2022-08-22T10:43:15.528Z,100572.72
2022-08-22T10:45:49.620Z,100585.72
2022-08-22T10:48:25.082Z,100577.47
2022-08-22T10:51:08.778Z,100568.75
2022-08-22T10:53:55.969Z,100574.66
2022-08-22T10:56:35.523Z,100581.75
2022-08-22T10:59:07.124Z,100589.31
2022-08-22T11:01:48.881Z,100593.34
2022-08-22T11:04:41.237Z,100596.75
2022-08-22T11:07:21.513Z,100601.03
2022-08-22T11:09:58.433Z,100609.66
2022-08-22T11:12:36.075Z,100615.56
2022-08-22T11:15:34.470Z,100634.00
2022-08-22T11:18:19.632Z,100625.50
2022-08-22T11:20:51.107Z,100642.03
2022-08-22T11:23:33.266Z,100656.34
2022-08-22T11:26:11.370Z,100653.03
2022-08-22T11:29:13.688Z,100658.69
2022-08-22T11:31:51.988Z,100647.25
2022-08-22T11:34:30.365Z,100643.94
2022-08-22T11:37:20.663Z,100658.56
2022-08-22T11:40:05.535Z,100661.78
2022-08-22T11:42:49.588Z,100672.06
2022-08-22T11:45:28.207Z,100675.81
2022-08-22T11:48:19.888Z,100694.28
2022-08-22T11:51:13.018Z,100716.22
2022-08-22T11:54:03.780Z,100736.53
2022-08-22T11:56:46.898Z,100733.22
2022-08-22T11:59:20.966Z,100734.06
2022-08-22T12:01:58.651Z,100731.56
2022-08-22T12:04:42.677Z,100734.50
2022-08-22T12:07:20.947Z,100732.84
2022-08-22T12:10:13.692Z,100731.44
2022-08-22T12:13:09.474Z,100746.09
2022-08-22T12:16:01.335Z,100750.88
2022-08-22T12:18:41.959Z,100752.78
2022-08-22T12:21:24.081Z,100765.09
2022-08-22T12:24:05.883Z,100762.56
2022-08-22T12:26:56.733Z,100764.47
2022-08-22T12:29:57.485Z,100760.09
2022-08-22T12:32:50.363Z,100745.91
2022-08-22T12:35:42.033Z,100737.78
2022-08-22T12:38:38.355Z,100723.59
2022-08-22T12:41:13.141Z,100730.31
2022-08-22T12:43:49.636Z,100730.47
2022-08-22T12:46:48.396Z,100731.28
2022-08-22T12:49:30.632Z,100729.16
2022-08-22T12:52:10.389Z,100721.25
2022-08-22T12:54:45.171Z,100737.53
2022-08-22T12:57:29.235Z,100731.28
2022-08-22T13:00:05.814Z,100745.91
2022-08-22T13:02:41.018Z,100763.28
2022-08-22T13:05:20.038Z,100764.31
2022-08-22T13:08:04.628Z,100776.25
2022-08-22T13:10:37.508Z,100784.41
2022-08-22T13:13:12.272Z,100781.91
2022-08-22T13:15:53.841Z,100794.06
2022-08-22T13:18:31.183Z,100797.84
2022-08-22T13:21:04.852Z,100797.84
2022-08-22T13:23:45.145Z,100792.63
2022-08-22T13:26:34.522Z,100801.84
2022-08-22T13:29:39.413Z,100808.22
2022-08-22T13:32:23.483Z,100817.97
2022-08-22T13:34:59.676Z,100825.81
2022-08-22T13:37:37.871Z,100822.53
2022-08-22T13:40:12.938Z,100827.94
2022-08-22T13:42:49.437Z,100822.53
2022-08-22T13:45:27.582Z,100825.00
2022-08-22T13:48:03.788Z,100823.81
2022-08-22T13:50:53.492Z,100820.28
2022-08-22T13:53:42.369Z,100824.63
2022-08-22T13:56:31.797Z,100825.91
2022-08-22T13:59:09.665Z,100839.69
2022-08-22T14:01:50.748Z,100844.75
2022-08-22T14:04:28.713Z,100858.59
2022-08-22T14:07:07.736Z,100853.94
2022-08-22T14:09:57.779Z,100854.47
2022-08-22T14:12:33.690Z,100858.53
2022-08-22T14:15:25.330Z,100872.38
2022-08-22T14:18:00.313Z,100882.03
2022-08-22T14:20:35.507Z,100897.47
2022-08-22T14:23:10.432Z,100904.03
2022-08-22T14:25:43.509Z,100904.69
2022-08-22T14:28:32.637Z,100907.22
2022-08-22T14:31:13.862Z,100918.72
2022-08-22T14:33:50.654Z,100921.06
2022-08-22T14:36:31.671Z,100926.09
2022-08-22T14:39:11.249Z,100935.94
2022-08-22T14:41:55.543Z,100934.94
2022-08-22T14:44:33.652Z,100932.88
2022-08-22T14:47:08.330Z,100936.03
2022-08-22T14:50:00.930Z,100941.25
2022-08-22T14:52:32.793Z,100942.09
2022-08-22T14:55:10.540Z,100942.09
2022-08-22T14:57:54.254Z,100949.22
2022-08-22T15:00:28.519Z,100953.44
2022-08-22T15:03:18.510Z,100947.00
2022-08-22T15:05:57.195Z,100946.38
2022-08-22T15:08:33.206Z,100951.16
2022-08-22T15:11:23.575Z,100946.81
2022-08-22T15:14:01.065Z,100947.84
2022-08-22T15:16:37.944Z,100946.41
2022-08-22T15:19:27.442Z,100937.00
2022-08-22T15:22:13.498Z,100940.34
2022-08-22T15:24:48.457Z,100940.34
2022-08-22T15:27:22.298Z,100922.66
2022-08-22T15:29:59.050Z,100928.06
2022-08-22T15:32:32.317Z,100920.63
2022-08-22T15:35:10.444Z,100922.69
2022-08-22T15:37:56.626Z,100919.38
2022-08-22T15:40:45.862Z,100907.34
2022-08-22T15:43:34.850Z,100898.59
2022-08-22T15:46:25.321Z,100907.97
2022-08-22T15:49:11.080Z,100908.63
2022-08-22T15:52:03.020Z,100919.44
2022-08-22T15:54:54.717Z,100921.13
2022-08-22T15:57:36.515Z,100928.66
2022-08-22T16:00:24.353Z,100934.44
2022-08-22T16:03:09.174Z,100924.91
2022-08-22T16:05:53.269Z,100925.28
2022-08-22T16:08:27.091Z,100925.72
2022-08-22T16:11:05.350Z,100921.56
2022-08-22T16:13:42.043Z,100925.53
2022-08-22T16:16:13.992Z,100921.19
2022-08-22T16:18:45.862Z,100918.91
2022-08-22T16:21:20.559Z,100909.16
2022-08-22T16:23:58.498Z,100914.97
2022-08-22T16:26:33.009Z,100917.88
2022-08-22T16:29:17.973Z,100917.06
2022-08-22T16:31:49.943Z,100913.72
2022-08-22T16:34:24.593Z,100896.88
2022-08-22T16:37:24.545Z,100898.75
2022-08-22T16:40:09.023Z,100890.44
2022-08-22T16:42:48.318Z,100877.94
2022-08-22T16:45:20.101Z,100857.56
2022-08-22T16:47:58.287Z,100858.44
2022-08-22T16:50:34.385Z,100841.56
2022-08-22T16:53:11.599Z,100825.78
2022-08-22T16:55:44.938Z,100827.66
2022-08-22T16:58:55.909Z,100808.72
2022-08-22T17:01:44.544Z,100808.50
2022-08-22T17:04:34.275Z,100798.25
2022-08-22T17:07:05.724Z,100791.97
2022-08-22T17:09:50.803Z,100786.31
2022-08-22T17:12:31.125Z,100781.91
2022-08-22T17:15:20.868Z,100777.13
2022-08-22T17:18:10.693Z,100782.53
2022-08-22T17:21:11.559Z,100783.34
2022-08-22T17:23:53.536Z,100775.88
2022-08-22T17:26:38.237Z,100782.09
2022-08-22T17:29:22.106Z,100781.28
2022-08-22T17:31:56.394Z,100783.16
2022-08-22T17:34:51.055Z,100784.81
2022-08-22T17:37:40.790Z,100792.09
2022-08-22T17:40:25.814Z,100791.28
2022-08-22T17:43:15.647Z,100791.72
2022-08-22T17:46:02.578Z,100782.97
2022-08-22T17:48:44.000Z,100779.22
2022-08-22T17:51:18.739Z,100773.81
2022-08-22T17:53:52.711Z,100761.56
2022-08-22T17:56:26.954Z,100761.78
2022-08-22T17:59:04.334Z,100754.72
2022-08-22T18:01:48.416Z,100750.94
2022-08-22T18:04:26.542Z,100746.81
2022-08-22T18:07:17.489Z,100743.28
2022-08-22T18:09:54.104Z,100737.25
2022-08-22T18:12:34.289Z,100737.47
2022-08-22T18:15:09.524Z,100737.69
2022-08-22T18:17:49.761Z,100733.91
2022-08-22T18:20:24.427Z,100721.47
2022-08-22T18:22:58.631Z,100716.50
2022-08-22T18:25:34.155Z,100715.66
2022-08-22T18:28:14.196Z,100712.34
2022-08-22T18:30:57.818Z,100699.63
2022-08-22T18:33:33.405Z,100704.22
2022-08-22T18:36:28.036Z,100694.47
2022-08-22T18:39:04.901Z,100690.31
2022-08-22T18:41:40.454Z,100689.91
2022-08-22T18:44:14.881Z,100688.25
2022-08-22T18:46:52.101Z,100686.19
2022-08-22T18:49:26.592Z,100685.56
2022-08-22T18:52:07.149Z,100679.31
2022-08-22T18:54:38.555Z,100676.63
2022-08-22T18:57:26.007Z,100667.44
2022-08-22T18:59:58.022Z,100660.84
2022-08-22T19:02:55.837Z,100650.03
2022-08-22T19:05:46.212Z,100652.94
2022-08-22T19:08:37.066Z,100645.06
2022-08-22T19:11:09.359Z,100643.38
2022-08-22T19:14:08.013Z,100636.09
2022-08-22T19:16:51.554Z,100632.56
2022-08-22T19:19:25.418Z,100631.75
2022-08-22T19:22:20.961Z,100624.69
2022-08-22T19:25:08.966Z,100620.31
2022-08-22T19:27:42.933Z,100624.91
2022-08-22T19:30:32.794Z,100619.94
2022-08-22T19:33:06.936Z,100618.03
2022-08-22T19:35:43.798Z,100617.22
2022-08-22T19:38:35.204Z,100617.22
2022-08-22T19:41:06.689Z,100617.66
2022-08-22T19:43:39.754Z,100617.66
2022-08-22T19:46:14.103Z,100611.63
2022-08-22T19:48:50.163Z,100611.44
2022-08-22T19:51:21.857Z,100609.38
2022-08-22T19:53:53.638Z,100608.94
2022-08-22T19:56:49.648Z,100603.53
2022-08-22T19:59:39.573Z,100598.56
2022-08-22T20:02:28.030Z,100593.16
2022-08-22T20:04:59.441Z,100587.75
2022-08-22T20:07:40.714Z,100592.13
2022-08-22T20:10:18.278Z,100597.94
2022-08-22T20:12:52.525Z,100585.69
2022-08-22T20:15:26.850Z,100595.25
2022-08-22T20:20:59.690Z,100590.69
2022-08-22T20:23:32.698Z,100590.69
2022-08-22T20:26:04.885Z,100591.13
2022-08-22T20:28:36.424Z,100585.34
2022-08-22T20:31:12.187Z,100593.44
2022-08-22T20:33:46.078Z,100594.28
2022-08-22T20:36:28.692Z,100586.59
2022-08-22T20:39:07.639Z,100595.75
2022-08-22T20:41:41.102Z,100591.63
2022-08-22T20:44:18.651Z,100586.22
2022-08-22T20:46:53.378Z,100594.53
2022-08-22T20:49:26.497Z,100594.75
2022-08-22T20:52:03.498Z,100592.25
2022-08-22T20:54:36.709Z,100599.53
2022-08-22T20:57:21.402Z,100604.13
2022-08-22T20:59:52.943Z,100600.38
2022-08-22T21:02:50.974Z,100601.00
2022-08-22T21:05:24.394Z,100608.28
2022-08-22T21:08:04.469Z,100597.88
2022-08-22T21:10:55.919Z,100605.78
2022-08-22T21:13:45.544Z,100604.94
2022-08-22T21:16:21.254Z,100616.78
2022-08-22T21:18:54.216Z,100617.03
2022-08-22T21:21:27.996Z,100617.03
2022-08-22T21:24:01.341Z,100603.50
2022-08-22T21:26:42.179Z,100606.22
2022-08-22T21:29:16.756Z,100597.91
2022-08-22T21:31:53.353Z,100603.75
2022-08-22T21:34:33.727Z,100601.06
2022-08-22T21:37:14.308Z,100590.47
2022-08-22T21:39:47.841Z,100591.91
2022-08-22T21:42:39.728Z,100596.28
2022-08-22T21:45:31.813Z,100585.91
2022-08-22T21:48:03.853Z,100597.31
2022-08-22T21:50:39.576Z,100600.00
2022-08-22T21:53:27.081Z,100610.81
2022-08-22T21:56:15.664Z,100611.25
2022-08-22T21:58:48.023Z,100615.44
2022-08-22T22:01:35.408Z,100616.47
2022-08-22T22:04:07.425Z,100622.28
2022-08-22T22:06:39.231Z,100625.44
2022-08-22T22:09:15.040Z,100639.16
2022-08-22T22:11:47.253Z,100631.25
2022-08-22T22:14:20.484Z,100631.69
2022-08-22T22:16:52.337Z,100635.44
2022-08-22T22:19:24.421Z,100625.91
2022-08-22T22:21:56.295Z,100635.84
2022-08-22T22:24:28.590Z,100637.53
2022-08-22T22:27:00.514Z,100633.16
2022-08-22T22:29:33.521Z,100642.09
2022-08-22T22:32:06.114Z,100642.53
2022-08-22T22:34:38.768Z,100643.34
2022-08-22T22:37:11.496Z,100639.59
2022-08-22T22:39:44.006Z,100648.09
2022-08-22T22:42:15.939Z,100656.22
2022-08-22T22:44:48.968Z,100649.97
2022-08-22T22:47:27.118Z,100657.47
2022-08-22T22:49:58.898Z,100654.75
2022-08-22T22:52:30.807Z,100662.03
2022-08-22T22:55:03.298Z,100666.38
2022-08-22T22:57:41.334Z,100666.63
2022-08-22T23:00:15.400Z,100666.00
2022-08-22T23:02:47.200Z,100672.44
2022-08-22T23:05:18.924Z,100674.13
2022-08-22T23:07:50.771Z,100671.59
2022-08-22T23:10:22.692Z,100669.31
2022-08-22T23:12:54.802Z,100678.47
2022-08-22T23:15:26.530Z,100676.78
2022-08-22T23:17:58.560Z,100680.72
2022-08-22T23:20:30.476Z,100677.38
2022-08-22T23:23:02.294Z,100688.38
2022-08-22T23:25:34.139Z,100682.09
2022-08-22T23:28:06.270Z,100681.69
2022-08-22T23:30:38.147Z,100686.22
2022-08-22T23:33:10.388Z,100684.31
2022-08-22T23:35:42.118Z,100689.47
2022-08-22T23:38:13.851Z,100685.50
2022-08-22T23:40:47.993Z,100678.41
2022-08-22T23:43:19.787Z,100677.31
2022-08-22T23:45:51.575Z,100686.19
2022-08-22T23:48:23.292Z,100687.00
2022-08-22T23:50:55.081Z,100685.28
2022-08-22T23:53:26.942Z,100683.59
2022-08-22T23:55:58.720Z,100684.78
2022-08-22T23:58:30.965Z,100684.75
